Nearby METAR Reports

 

KSJC - San Jose, California, USA
Distance from station: NØ 14km
Oppdatert: 25/02/2021 08:53
Klart
Klart
 Vind fra NV
Vind: NV 28 km/h, Vindkast: 41 km/h
Temperatur: 13°C
Duggpunkt: -11°C
Fuktighet: 18%
Barometer: 1024.4 hPa
Clouds: Klart
Visibility: 16 km
2021/02/25 07:53 KSJC 250753Z 32015G22KT 10SM CLR 13/M11 A3025 RMK AO2 SLP243 LAST T01281106 402220061
KNUQ - Moffett Nas/Mtn, California, USA
Distance from station: N 14km
Oppdatert: 25/02/2021 08:55
Klart
Klart
 Vind fra NNV
Vind: NNV 19 km/h
Temperatur: 13°C
Duggpunkt: -8°C
Fuktighet: 23%
Barometer: 1024.7 hPa
Clouds: Klart
Visibility: 16 km
2021/02/25 07:55 KNUQ 250755Z AUTO 34010KT 10SM CLR 13/M08 A3026 RMK AO2
 
KPAO - Palo Alto, California, USA
Distance from station: NNV 23km
Oppdatert: 25/02/2021 05:47
NOT Current
Klart
Klart
 Vind fra calm
Vind: Stille
Temperatur: 13°C
Duggpunkt: -3°C
Fuktighet: 33%
Barometer: 1024.4 hPa
Clouds: Klart
Visibility: 16 km
2021/02/25 04:47 KPAO 250447Z 00000KT 10SM SKC 13/M03 A3025 RMK LAST
KRHV - San Jose/Reid, California, USA
Distance from station: ØNØ 19km
Oppdatert: 25/02/2021 06:50
NOT Current
Klart
Klart
 Vind fra NV
Vind: NV 11 km/h, Vindkast: 43 km/h
Temperatur: 14°C
Duggpunkt: -9°C
Fuktighet: 20%
Barometer: 1024 hPa
Clouds: Klart
Visibility: 16 km
2021/02/25 05:50 KRHV 250550Z 32006G23KT 10SM SKC 14/M09 A3024 RMK LAST
 
KOAK - Oakland, California, USA
Distance from station: NNV 50km
Oppdatert: 25/02/2021 08:53
Klart
Klart
 Vind fra V
Vind: V 9 km/h
Temperatur: 16°C
Duggpunkt: -7°C
Fuktighet: 20%
Barometer: 1025.1 hPa
Clouds: Klart
Visibility: 16 km
2021/02/25 07:53 KOAK 250753Z 27005KT 10SM CLR 16/M07 A3027 RMK AO2 SLP250 T01561072 402440067
KSQL - San Carlos Airpo, California, USA
Distance from station: NV 34km
Oppdatert: 25/02/2021 08:55
Klart
Klart
 Vind fra V
Vind: V 6 km/h
Temperatur: 13°C
Duggpunkt: -9°C
Fuktighet: 21%
Barometer: 1025.1 hPa
Clouds: Klart
Visibility: 16 km
2021/02/25 07:55 KSQL 250755Z AUTO 28003KT 10SM CLR 13/M09 A3027 RMK AO2
 
KSFO - San Francisco, California, USA
Distance from station: NV 49km
Oppdatert: 25/02/2021 08:56
Few Clouds
Few Clouds
 Vind fra NNØ
Vind: NNØ 26 km/h
Temperatur: 15°C
Duggpunkt: -1°C
Fuktighet: 34%
Barometer: 1025.1 hPa
Clouds: Few Clouds
Visibility: 16 km
Cloud details: Few Clouds 6096 m
2021/02/25 07:56 KSFO 250756Z 02014KT 10SM FEW200 15/M01 A3027 RMK AO2 SLP250 T01501006 402170094
KE16 - San Martin, California, USA
Distance from station: ØSØ 43km
Oppdatert: 25/02/2021 08:55
Klart
Klart
 Vind fra NNV
Vind: NNV 33 km/h, Vindkast: 43 km/h
Temperatur: 12°C
Duggpunkt: -10°C
Fuktighet: 21%
Barometer: 1023 hPa
Clouds: Klart
Visibility: 16 km
2021/02/25 07:55 KE16 250755Z AUTO 33018G23KT 10SM CLR 12/M10 A3021 RMK AO2 PWINO PNO
 
KWVI - Watsonville, California, USA
Distance from station: SSØ 44km
Oppdatert: 25/02/2021 08:53
Klart
Klart
 Vind fra varies
Vind: varies 7 km/h
Temperatur: 13°C
Duggpunkt: -11°C
Fuktighet: 18%
Barometer: 1022.7 hPa
Clouds: Klart
Visibility: 16 km
2021/02/25 07:53 KWVI 250753Z AUTO VRB04KT 10SM CLR 13/M11 A3020 RMK AO2 SLP226 T01331106 402390028 $
KHAF - Half Moon Bay, California, USA
Distance from station: VNV 50km
Oppdatert: 25/02/2021 08:55
Klart
Klart
 Vind fra N
Vind: N 28 km/h, Vindkast: 46 km/h
Temperatur: 14°C
Duggpunkt: -8°C
Fuktighet: 21%
Barometer: 1024.4 hPa
Clouds: Klart
Visibility: 16 km
2021/02/25 07:55 KHAF 250755Z AUTO 01015G25KT 10SM CLR 14/M08 A3025 RMK AO2
 
KHWD - Hayward, California, USA
Distance from station: N 44km
Oppdatert: 25/02/2021 08:54
Klart
Klart
 Vind fra calm
Vind: Stille
Temperatur: 13°C
Duggpunkt: -9°C
Fuktighet: 21%
Barometer: 1024.7 hPa
Clouds: Klart
Visibility: 16 km
2021/02/25 07:54 KHWD 250754Z 00000KT 10SM CLR 13/M09 A3026 RMK AO2 SLP257 T01281089 402220056
KLVK - Livermore, California, USA
Distance from station: NNØ 51km
Oppdatert: 25/02/2021 08:53
Klart
Klart
 Vind fra varies
Vind: varies 7 km/h
Temperatur: 11°C
Duggpunkt: -12°C
Fuktighet: 19%
Barometer: 1024.7 hPa
Clouds: Klart
Visibility: 16 km
2021/02/25 07:53 KLVK 250753Z AUTO VRB04KT 10SM CLR 11/M12 A3026 RMK AO2 SLP243 T01111122 402060039